createdAt,value
2019-04-03T00:00:34.512Z,99948.67
2019-04-03T00:05:38.167Z,99949.53
2019-04-03T00:10:41.386Z,99948.34
2019-04-03T00:15:45.276Z,99943.26
2019-04-03T00:20:49.277Z,99948.64
2019-04-03T00:25:52.756Z,99943.08
2019-04-03T00:30:57.547Z,99935.02
2019-04-03T00:36:01.625Z,99935.69
2019-04-03T00:41:05.174Z,99936.25
2019-04-03T00:46:08.687Z,99945.98
2019-04-03T00:51:11.566Z,99946.69
2019-04-03T00:56:15.236Z,99944.90
2019-04-03T01:01:18.766Z,99940.50
2019-04-03T01:06:22.641Z,99932.52
2019-04-03T01:11:30.146Z,99928.80
2019-04-03T01:16:33.019Z,99932.45
2019-04-03T01:21:37.651Z,99939.23
2019-04-03T01:26:41.256Z,99942.81
2019-04-03T01:31:44.771Z,99931.83
2019-04-03T01:36:48.713Z,99928.58
2019-04-03T01:41:52.090Z,99935.61
2019-04-03T01:46:57.341Z,99934.31
2019-04-03T01:52:00.994Z,99942.27
2019-04-03T01:57:05.987Z,99934.47
2019-04-03T02:02:09.427Z,99937.91
2019-04-03T02:07:14.896Z,99942.61
2019-04-03T02:12:19.790Z,99944.20
2019-04-03T02:17:24.055Z,99940.86
2019-04-03T02:22:29.316Z,99938.09
2019-04-03T02:27:33.308Z,99947.33
2019-04-03T02:32:37.260Z,99942.25
2019-04-03T02:37:40.759Z,99940.98
2019-04-03T02:42:44.003Z,99947.67
2019-04-03T02:47:47.180Z,99948.94
2019-04-03T02:52:51.145Z,99948.80
2019-04-03T02:57:54.371Z,99955.91
2019-04-03T03:02:57.069Z,99947.34
2019-04-03T03:08:00.878Z,99946.94
2019-04-03T03:13:03.850Z,99945.94
2019-04-03T03:18:07.358Z,99959.03
2019-04-03T03:23:11.626Z,99959.64
2019-04-03T03:28:15.621Z,99960.36
2019-04-03T03:33:32.729Z,99963.06
2019-04-03T03:38:27.510Z,99965.31
2019-04-03T03:43:30.157Z,99966.67
2019-04-03T03:48:33.360Z,99969.38
2019-04-03T03:53:37.922Z,99967.92
2019-04-03T03:58:44.794Z,99968.94
2019-04-03T04:03:46.820Z,99975.53
2019-04-03T04:08:51.065Z,99980.68
2019-04-03T04:13:54.710Z,99971.73
2019-04-03T04:18:58.307Z,99978.98
2019-04-03T04:24:02.577Z,99982.48
2019-04-03T04:29:10.308Z,99977.55
2019-04-03T04:34:12.281Z,99972.45
2019-04-03T04:39:15.529Z,99975.84
2019-04-03T04:44:18.750Z,99977.66
2019-04-03T04:49:22.670Z,99979.81
2019-04-03T04:54:26.184Z,99983.23
2019-04-03T04:59:29.357Z,99992.87
2019-04-03T05:04:32.839Z,99991.42
2019-04-03T05:09:36.326Z,99996.96
2019-04-03T05:14:39.324Z,99997.59
2019-04-03T05:19:42.489Z,100003.19
2019-04-03T05:24:45.973Z,100007.86
2019-04-03T05:29:48.975Z,100011.83
2019-04-03T05:34:52.462Z,100008.83
2019-04-03T05:39:56.108Z,100004.72
2019-04-03T05:44:59.582Z,100002.36
2019-04-03T05:50:02.875Z,100014.25
2019-04-03T05:55:06.014Z,100019.09
2019-04-03T06:00:08.754Z,100021.88
2019-04-03T06:05:13.171Z,100027.12
2019-04-03T06:10:16.678Z,100033.04
2019-04-03T06:15:21.688Z,100044.63
2019-04-03T06:20:25.475Z,100046.03
2019-04-03T06:25:30.037Z,100055.98
2019-04-03T06:30:33.542Z,100039.48
2019-04-03T06:35:37.149Z,100046.16
2019-04-03T06:40:40.355Z,100047.03
2019-04-03T06:45:44.530Z,100055.92
2019-04-03T06:50:47.036Z,100056.33
2019-04-03T06:55:50.221Z,100064.03
2019-04-03T07:00:54.766Z,100067.97
2019-04-03T07:05:58.556Z,100060.81
2019-04-03T07:11:01.057Z,100067.42
2019-04-03T07:16:03.900Z,100076.55
2019-04-03T07:21:06.740Z,100077.34
2019-04-03T07:26:10.548Z,100085.97
2019-04-03T07:31:14.351Z,100095.16
2019-04-03T07:36:17.856Z,100098.42
2019-04-03T07:41:23.290Z,100093.25
2019-04-03T07:46:25.789Z,100094.23
2019-04-03T07:51:28.612Z,100096.74
2019-04-03T07:56:31.492Z,100110.03
2019-04-03T08:01:34.760Z,100102.66
2019-04-03T08:06:37.390Z,100100.61
2019-04-03T08:11:41.040Z,100117.26
2019-04-03T08:16:47.480Z,100118.45
2019-04-03T08:21:49.363Z,100126.30
2019-04-03T08:26:52.730Z,100139.03
2019-04-03T08:31:55.838Z,100144.19
2019-04-03T08:37:01.386Z,100147.52
2019-04-03T08:42:04.582Z,100150.52
2019-04-03T08:47:07.935Z,100159.16
2019-04-03T08:52:13.882Z,100149.39
2019-04-03T08:57:19.998Z,100155.94
2019-04-03T09:02:21.579Z,100149.84
2019-04-03T09:07:25.545Z,100146.84
2019-04-03T09:12:28.951Z,100145.82
2019-04-03T09:17:34.124Z,100146.69
2019-04-03T09:22:37.913Z,100142.97
2019-04-03T09:27:41.395Z,100141.19
2019-04-03T09:32:44.307Z,100148.36
2019-04-03T09:37:47.859Z,100135.52
2019-04-03T09:42:51.588Z,100132.98
2019-04-03T09:47:55.709Z,100126.41
2019-04-03T09:53:01.641Z,100124.83
2019-04-03T09:58:04.296Z,100127.23
2019-04-03T10:03:07.615Z,100124.98
2019-04-03T10:08:10.885Z,100127.39
2019-04-03T10:13:13.813Z,100129.06
2019-04-03T10:18:17.430Z,100131.16
2019-04-03T10:23:20.074Z,100134.41
2019-04-03T10:28:23.187Z,100147.05
2019-04-03T10:33:26.505Z,100155.14
2019-04-03T10:38:29.465Z,100148.43
2019-04-03T10:43:32.747Z,100134.75
2019-04-03T10:48:35.803Z,100141.89
2019-04-03T10:53:39.896Z,100141.31
2019-04-03T10:58:43.808Z,100139.63
2019-04-03T11:03:47.165Z,100141.66
2019-04-03T11:08:50.183Z,100139.75
2019-04-03T11:13:53.480Z,100134.47
2019-04-03T11:19:00.014Z,100131.80
2019-04-03T11:24:01.335Z,100131.42
2019-04-03T11:29:05.099Z,100129.39
2019-04-03T11:34:08.622Z,100125.33
2019-04-03T11:39:15.152Z,100117.72
2019-04-03T11:44:15.907Z,100120.44
2019-04-03T11:49:19.993Z,100126.19
2019-04-03T11:54:24.322Z,100122.48
2019-04-03T11:59:27.568Z,100119.47
2019-04-03T12:04:30.710Z,100125.66
2019-04-03T12:09:33.880Z,100123.51
2019-04-03T12:14:37.464Z,100127.98
2019-04-03T12:19:40.627Z,100118.70
2019-04-03T12:24:44.059Z,100095.02
2019-04-03T12:29:47.049Z,100091.84
2019-04-03T12:34:50.962Z,100087.69
2019-04-03T12:39:53.503Z,100078.23
2019-04-03T12:44:56.687Z,100068.41
2019-04-03T12:50:00.198Z,100065.41
2019-04-03T12:55:04.234Z,100062.83
2019-04-03T13:00:12.768Z,100055.10
2019-04-03T13:05:16.751Z,100061.69
2019-04-03T13:10:21.269Z,100062.27
2019-04-03T13:15:24.864Z,100057.81
2019-04-03T13:20:28.020Z,100060.95
2019-04-03T13:25:31.413Z,100059.29
2019-04-03T13:30:34.789Z,100058.83
2019-04-03T13:35:38.307Z,100052.79
2019-04-03T13:40:40.795Z,100053.03
2019-04-03T13:45:43.614Z,100051.95
2019-04-03T13:50:46.727Z,100044.10
2019-04-03T13:55:49.985Z,100042.71
2019-04-03T14:01:00.914Z,100046.56
2019-04-03T14:05:58.274Z,100034.41
2019-04-03T14:11:02.717Z,100016.55
2019-04-03T14:16:18.975Z,100017.69
2019-04-03T14:21:11.135Z,100017.54
2019-04-03T14:26:14.698Z,100012.98
2019-04-03T14:31:19.077Z,100005.89
2019-04-03T14:36:22.456Z,100004.81
2019-04-03T14:41:26.352Z,99997.18
2019-04-03T14:46:29.342Z,99991.15
2019-04-03T14:51:32.709Z,99993.63
2019-04-03T14:56:36.039Z,99994.20
2019-04-03T15:01:39.734Z,99990.30
2019-04-03T15:06:44.217Z,99978.24
2019-04-03T15:11:48.198Z,99977.16
2019-04-03T15:16:51.107Z,99971.95
2019-04-03T15:21:56.690Z,99965.75
2019-04-03T15:26:59.067Z,99962.72
2019-04-03T15:32:02.265Z,99962.23
2019-04-03T15:37:07.523Z,99959.94
2019-04-03T15:42:11.062Z,99952.78
2019-04-03T15:47:20.495Z,99952.27
2019-04-03T15:52:20.668Z,99938.07
2019-04-03T15:57:24.564Z,99938.73
2019-04-03T16:02:29.092Z,99932.91
2019-04-03T16:07:33.556Z,99935.31
2019-04-03T16:12:41.489Z,99923.94
2019-04-03T16:17:43.201Z,99919.62
2019-04-03T16:22:47.075Z,99920.45
2019-04-03T16:27:50.966Z,99921.08
2019-04-03T16:32:57.042Z,99914.97
2019-04-03T16:38:00.284Z,99909.17
2019-04-03T16:43:10.369Z,99893.03
2019-04-03T16:48:15.910Z,99895.48
2019-04-03T16:53:20.433Z,99898.84
2019-04-03T16:58:26.458Z,99900.20
2019-04-03T17:03:33.244Z,99896.80
2019-04-03T17:08:36.509Z,99887.63
2019-04-03T17:13:41.091Z,99892.68
2019-04-03T17:18:47.132Z,99901.98
2019-04-03T17:23:52.401Z,99901.50
2019-04-03T17:29:05.202Z,99896.53
2019-04-03T17:34:08.394Z,99897.45
2019-04-03T17:39:14.537Z,99891.10
2019-04-03T17:44:22.184Z,99883.42
2019-04-03T17:49:30.526Z,99887.41
2019-04-03T17:54:34.013Z,99881.39
2019-04-03T17:59:37.289Z,99891.06
2019-04-03T18:04:40.532Z,99893.80
2019-04-03T18:09:43.366Z,99894.09
2019-04-03T18:14:52.160Z,99905.22
2019-04-03T18:19:58.289Z,99910.60
2019-04-03T18:25:02.114Z,99921.70
2019-04-03T18:30:06.752Z,99913.52
2019-04-03T18:35:10.972Z,99904.50
2019-04-03T18:40:15.329Z,99905.12
2019-04-03T18:45:29.971Z,99897.07
2019-04-03T18:50:35.136Z,99901.05
2019-04-03T18:55:40.262Z,99893.42
2019-04-03T19:00:44.263Z,99895.41
2019-04-03T19:05:47.732Z,99898.48
2019-04-03T19:11:01.531Z,99894.47
2019-04-03T19:15:58.323Z,99891.84
2019-04-03T19:26:36.205Z,99882.78
2019-04-03T19:31:40.784Z,99884.55
2019-04-03T19:36:45.291Z,99883.55
2019-04-03T19:41:49.121Z,99873.41
2019-04-03T19:47:05.141Z,99879.16
2019-04-03T19:52:11.617Z,99872.00
2019-04-03T19:57:19.817Z,99879.92
2019-04-03T20:02:23.513Z,99870.06
2019-04-03T20:07:27.332Z,99862.33
2019-04-03T20:12:29.979Z,99862.29
2019-04-03T20:17:34.747Z,99858.34
2019-04-03T20:22:42.462Z,99853.20
2019-04-03T20:27:47.622Z,99855.14
2019-04-03T20:32:52.435Z,99841.98
2019-04-03T20:37:57.019Z,99827.59
2019-04-03T20:43:01.311Z,99793.83
2019-04-03T20:48:04.444Z,99805.34
2019-04-03T20:53:07.478Z,99805.99
2019-04-03T20:58:10.606Z,99802.18
2019-04-03T21:03:13.589Z,99806.03
2019-04-03T21:08:17.161Z,99828.67
2019-04-03T21:13:20.446Z,99805.44
2019-04-03T21:18:23.867Z,99797.24
2019-04-03T21:23:27.529Z,99788.16
2019-04-03T21:28:30.876Z,99769.39
2019-04-03T21:33:33.995Z,99773.92
2019-04-03T21:38:37.691Z,99764.06
2019-04-03T21:43:40.857Z,99781.67
2019-04-03T21:48:44.753Z,99780.82
2019-04-03T21:53:48.608Z,99775.14
2019-04-03T21:58:51.721Z,99781.91
2019-04-03T22:03:55.193Z,99783.95
2019-04-03T22:09:00.457Z,99777.00
2019-04-03T22:14:04.365Z,99771.20
2019-04-03T22:19:07.592Z,99762.04
2019-04-03T22:24:11.156Z,99736.70
2019-04-03T22:29:14.649Z,99742.75
2019-04-03T22:34:17.262Z,99765.51
2019-04-03T22:39:20.464Z,99747.06
2019-04-03T22:44:23.877Z,99715.38
2019-04-03T22:49:26.679Z,99716.56
2019-04-03T22:54:30.024Z,99728.77
2019-04-03T22:59:33.613Z,99707.22
2019-04-03T23:04:36.622Z,99699.13
2019-04-03T23:09:39.924Z,99692.17
2019-04-03T23:14:43.441Z,99691.92
2019-04-03T23:19:46.356Z,99681.91
2019-04-03T23:24:49.885Z,99648.86
2019-04-03T23:29:52.829Z,99643.84
2019-04-03T23:34:56.381Z,99642.25
2019-04-03T23:40:01.026Z,99620.53
2019-04-03T23:45:05.694Z,99618.73
2019-04-03T23:50:08.220Z,99612.94
2019-04-03T23:55:11.499Z,99589.84
